createdAt,value
2018-07-04T00:00:30.229Z,994.6
2018-07-04T00:01:30.959Z,994.6
2018-07-04T00:02:31.638Z,994.6
2018-07-04T00:03:32.317Z,994.6
2018-07-04T00:04:32.996Z,994.6
2018-07-04T00:05:33.677Z,994.5
2018-07-04T00:06:34.415Z,994.6
2018-07-04T00:07:35.134Z,994.6
2018-07-04T00:08:35.812Z,994.6
2018-07-04T00:09:36.543Z,994.6
2018-07-04T00:10:37.221Z,994.6
2018-07-04T00:11:37.899Z,994.6
2018-07-04T00:12:38.578Z,994.6
2018-07-04T00:13:39.257Z,994.6
2018-07-04T00:14:39.935Z,994.6
2018-07-04T00:15:40.616Z,994.5
2018-07-04T00:16:41.293Z,994.5
2018-07-04T00:17:42.023Z,994.5
2018-07-04T00:18:42.754Z,994.5
2018-07-04T00:19:43.436Z,994.5
2018-07-04T00:20:44.109Z,994.5
2018-07-04T00:21:44.794Z,994.5
2018-07-04T00:22:45.468Z,994.5
2018-07-04T00:23:46.205Z,994.5
2018-07-04T00:24:46.928Z,994.5
2018-07-04T00:25:47.656Z,994.5
2018-07-04T00:26:48.286Z,994.5
2018-07-04T00:27:49.015Z,994.5
2018-07-04T00:28:49.693Z,994.5
2018-07-04T00:29:50.375Z,994.5
2018-07-04T00:30:51.054Z,994.5
2018-07-04T00:31:51.731Z,994.5
2018-07-04T00:32:52.473Z,994.5
2018-07-04T00:33:53.141Z,994.5
2018-07-04T00:34:53.820Z,994.6
2018-07-04T00:35:54.499Z,994.5
2018-07-04T00:36:55.228Z,994.5
2018-07-04T00:37:55.905Z,994.5
2018-07-04T00:38:56.589Z,994.5
2018-07-04T00:39:57.314Z,994.5
2018-07-04T00:40:57.990Z,994.5
2018-07-04T00:41:58.670Z,994.5
2018-07-04T00:42:59.349Z,994.5
2018-07-04T00:44:00.090Z,994.5
2018-07-04T00:45:00.707Z,994.5
2018-07-04T00:46:01.438Z,994.5
2018-07-04T00:47:02.115Z,994.5
2018-07-04T00:48:02.843Z,994.5
2018-07-04T00:49:03.520Z,994.5
2018-07-04T00:50:04.201Z,994.6
2018-07-04T00:51:04.878Z,994.6
2018-07-04T00:52:05.557Z,994.6
2018-07-04T00:53:06.286Z,994.6
2018-07-04T00:54:06.963Z,994.6
2018-07-04T00:55:07.646Z,994.6
2018-07-04T00:56:08.372Z,994.6
2018-07-04T00:57:09.048Z,994.6
2018-07-04T00:58:09.726Z,994.6
2018-07-04T00:59:10.404Z,994.6
2018-07-04T01:00:11.083Z,994.5
2018-07-04T01:01:11.762Z,994.5
2018-07-04T01:02:12.489Z,994.5
2018-07-04T01:03:13.216Z,994.5
2018-07-04T01:04:13.898Z,994.5
2018-07-04T01:05:14.575Z,994.5
2018-07-04T01:06:15.253Z,994.6
2018-07-04T01:07:15.931Z,994.5
2018-07-04T01:08:16.610Z,994.6
2018-07-04T01:09:17.290Z,994.6
2018-07-04T01:10:17.968Z,994.6
2018-07-04T01:11:18.645Z,994.6
2018-07-04T01:12:19.371Z,994.6
2018-07-04T01:13:20.050Z,994.6
2018-07-04T01:14:20.731Z,994.6
2018-07-04T01:15:21.456Z,994.6
2018-07-04T01:16:22.135Z,994.5
2018-07-04T01:17:22.866Z,994.5
2018-07-04T01:18:23.543Z,994.6
2018-07-04T01:19:24.272Z,994.6
2018-07-04T01:20:24.949Z,994.6
2018-07-04T01:21:25.626Z,994.6
2018-07-04T01:22:26.354Z,994.6
2018-07-04T01:23:27.032Z,994.6
2018-07-04T01:24:27.761Z,994.6
2018-07-04T01:25:28.487Z,994.6
2018-07-04T01:26:29.166Z,994.6
2018-07-04T01:27:29.843Z,994.6
2018-07-04T01:28:30.524Z,994.6
2018-07-04T01:29:31.250Z,994.6
2018-07-04T01:30:31.978Z,994.6
2018-07-04T01:31:32.657Z,994.6
2018-07-04T01:32:33.337Z,994.6
2018-07-04T01:33:34.014Z,994.6
2018-07-04T01:34:34.694Z,994.6
2018-07-04T01:35:35.423Z,994.6
2018-07-04T01:36:36.101Z,994.5
2018-07-04T01:37:36.780Z,994.6
2018-07-04T01:38:37.457Z,994.6
2018-07-04T01:39:38.136Z,994.6
2018-07-04T01:40:38.815Z,994.5
2018-07-04T01:41:39.495Z,994.5
2018-07-04T01:42:40.171Z,994.5
2018-07-04T01:43:40.901Z,994.5
2018-07-04T01:44:41.580Z,994.5
2018-07-04T01:45:42.256Z,994.5
2018-07-04T01:46:42.937Z,994.5
2018-07-04T01:47:43.665Z,994.5
2018-07-04T01:48:44.345Z,994.5
2018-07-04T01:49:45.022Z,994.5
2018-07-04T01:50:45.713Z,994.4
2018-07-04T01:51:46.427Z,994.5
2018-07-04T01:52:47.105Z,994.4
2018-07-04T01:53:47.783Z,994.4
2018-07-04T01:54:48.461Z,994.5
2018-07-04T01:55:49.191Z,994.4
2018-07-04T01:56:49.868Z,994.5
2018-07-04T01:57:50.550Z,994.5
2018-07-04T01:58:51.275Z,994.4
2018-07-04T01:59:51.953Z,994.4
2018-07-04T02:00:52.633Z,994.4
2018-07-04T02:01:53.312Z,994.4
2018-07-04T02:02:53.990Z,994.4
2018-07-04T02:03:54.717Z,994.3
2018-07-04T02:04:55.393Z,994.3
2018-07-04T02:05:56.072Z,994.3
2018-07-04T02:06:56.753Z,994.4
2018-07-04T02:07:57.430Z,994.3
2018-07-04T02:08:58.204Z,994.3
2018-07-04T02:09:58.884Z,994.3
2018-07-04T02:10:59.563Z,994.3
2018-07-04T02:12:00.244Z,994.3
2018-07-04T02:13:00.918Z,994.3
2018-07-04T02:14:01.646Z,994.3
2018-07-04T02:15:02.324Z,994.3
2018-07-04T02:16:03.053Z,994.3
2018-07-04T02:17:03.731Z,994.3
2018-07-04T02:18:04.410Z,994.3
2018-07-04T02:19:05.089Z,994.3
2018-07-04T02:20:05.866Z,994.3
2018-07-04T02:21:06.545Z,994.3
2018-07-04T02:22:07.224Z,994.3
2018-07-04T02:23:07.900Z,994.2
2018-07-04T02:24:08.579Z,994.3
2018-07-04T02:25:09.305Z,994.3
2018-07-04T02:26:09.981Z,994.2
2018-07-04T02:27:10.663Z,994.3
2018-07-04T02:28:11.391Z,994.2
2018-07-04T02:29:12.071Z,994.2
2018-07-04T02:30:12.751Z,994.2
2018-07-04T02:31:13.425Z,994.2
2018-07-04T02:32:14.152Z,994.3
2018-07-04T02:33:14.880Z,994.2
2018-07-04T02:34:15.558Z,994.2
2018-07-04T02:35:16.236Z,994.2
2018-07-04T02:36:16.912Z,994.2
2018-07-04T02:37:17.591Z,994.2
2018-07-04T02:38:18.370Z,994.2
2018-07-04T02:39:19.048Z,994.2
2018-07-04T02:40:19.726Z,994.2
2018-07-04T02:41:20.460Z,994.2
2018-07-04T02:42:21.135Z,994.3
2018-07-04T02:43:21.816Z,994.3
2018-07-04T02:44:22.492Z,994.3
2018-07-04T02:45:23.171Z,994.3
2018-07-04T02:46:23.901Z,994.3
2018-07-04T02:47:24.581Z,994.3
2018-07-04T02:48:25.265Z,994.3
2018-07-04T02:49:25.939Z,994.3
2018-07-04T02:50:26.618Z,994.3
2018-07-04T02:51:27.345Z,994.3
2018-07-04T02:52:28.025Z,994.3
2018-07-04T02:53:28.704Z,994.3
2018-07-04T02:54:29.382Z,994.2
2018-07-04T02:55:30.062Z,994.3
2018-07-04T02:56:30.794Z,994.2
2018-07-04T02:57:31.519Z,994.2
2018-07-04T02:58:32.197Z,994.2
2018-07-04T02:59:32.876Z,994.2
2018-07-04T03:00:33.557Z,994.2
2018-07-04T03:01:34.336Z,994.1
2018-07-04T03:02:35.018Z,994.1
2018-07-04T03:03:35.695Z,994.2
2018-07-04T03:04:36.374Z,994.1
2018-07-04T03:05:37.056Z,994.1
2018-07-04T03:06:37.833Z,994.2
2018-07-04T03:07:38.513Z,994.2
2018-07-04T03:08:39.192Z,994.2
2018-07-04T03:09:39.872Z,994.2
2018-07-04T03:10:40.555Z,994.2
2018-07-04T03:11:41.231Z,994.2
2018-07-04T03:12:41.911Z,994.2
2018-07-04T03:13:42.591Z,994.2
2018-07-04T03:14:43.317Z,994.2
2018-07-04T03:15:44.048Z,994.2
2018-07-04T03:16:44.729Z,994.2
2018-07-04T03:17:45.412Z,994.2
2018-07-04T03:18:46.091Z,994.2
2018-07-04T03:19:46.771Z,994.2
2018-07-04T03:20:47.504Z,994.2
2018-07-04T03:21:48.184Z,994.3
2018-07-04T03:22:48.867Z,994.3
2018-07-04T03:23:49.549Z,994.3
2018-07-04T03:24:50.229Z,994.3
2018-07-04T03:25:50.961Z,994.2
2018-07-04T03:26:51.640Z,994.2
2018-07-04T03:27:52.325Z,994.2
2018-07-04T03:28:53.009Z,994.2
2018-07-04T03:29:53.734Z,994.2
2018-07-04T03:30:54.414Z,994.2
2018-07-04T03:31:55.094Z,994.2
2018-07-04T03:32:55.793Z,994.2
2018-07-04T03:33:56.504Z,994.2
2018-07-04T03:34:57.235Z,994.3
2018-07-04T03:35:57.915Z,994.3
2018-07-04T03:36:58.596Z,994.3
2018-07-04T03:37:59.276Z,994.3
2018-07-04T03:38:59.956Z,994.3
2018-07-04T03:40:00.695Z,994.3
2018-07-04T03:41:01.420Z,994.3
2018-07-04T03:42:02.100Z,994.2
2018-07-04T03:43:02.782Z,994.2
2018-07-04T03:44:03.460Z,994.2
2018-07-04T03:45:04.193Z,994.2
2018-07-04T03:46:04.873Z,994.2
2018-07-04T03:47:05.556Z,994.1
2018-07-04T03:48:06.237Z,994.2
2018-07-04T03:49:06.967Z,994.1
2018-07-04T03:50:07.647Z,994.2
2018-07-04T03:51:08.327Z,994.1
2018-07-04T03:52:09.010Z,994.1
2018-07-04T03:53:09.692Z,994.1
2018-07-04T03:54:10.472Z,994.1
2018-07-04T03:55:11.153Z,994.1
2018-07-04T03:56:11.836Z,994.1
2018-07-04T03:57:12.515Z,994.1
2018-07-04T03:58:13.246Z,994.2
2018-07-04T03:59:13.927Z,994.2
2018-07-04T04:00:14.609Z,994.1
2018-07-04T04:01:15.342Z,994.2
2018-07-04T04:02:16.024Z,994.1
2018-07-04T04:03:16.708Z,994.2
2018-07-04T04:04:17.390Z,994.1
2018-07-04T04:05:18.072Z,994.1
2018-07-04T04:06:18.803Z,994.1
2018-07-04T04:07:19.531Z,994.1
2018-07-04T04:08:20.168Z,994.1
2018-07-04T04:09:20.849Z,994.1
2018-07-04T04:10:21.533Z,994.1
2018-07-04T04:11:22.218Z,994.2
2018-07-04T04:12:22.947Z,994.2
2018-07-04T04:13:23.631Z,994.2
2018-07-04T04:14:24.311Z,994.2
2018-07-04T04:15:24.994Z,994.2
2018-07-04T04:16:25.676Z,994.2
2018-07-04T04:17:26.359Z,994.3
2018-07-04T04:18:27.041Z,994.3
2018-07-04T04:19:27.774Z,994.2
2018-07-04T04:20:28.457Z,994.2
2018-07-04T04:21:29.139Z,994.3
2018-07-04T04:22:29.821Z,994.3
2018-07-04T04:23:30.504Z,994.3
2018-07-04T04:24:31.238Z,994.3
2018-07-04T04:25:31.920Z,994.3
2018-07-04T04:26:32.613Z,994.3
2018-07-04T04:27:33.286Z,994.3
2018-07-04T04:28:33.969Z,994.3
2018-07-04T04:29:34.701Z,994.3
2018-07-04T04:30:35.381Z,994.3
2018-07-04T04:31:36.063Z,994.2
2018-07-04T04:32:36.794Z,994.2
2018-07-04T04:33:37.554Z,994.3
2018-07-04T04:34:38.178Z,994.2
2018-07-04T04:35:38.860Z,994.2
2018-07-04T04:36:39.542Z,994.2
2018-07-04T04:37:40.273Z,994.2
2018-07-04T04:38:40.954Z,994.2
2018-07-04T04:39:41.637Z,994.2
2018-07-04T04:40:42.320Z,994.2
2018-07-04T04:41:43.003Z,994.2
2018-07-04T04:42:43.686Z,994.2
2018-07-04T04:43:44.371Z,994.2
2018-07-04T04:44:45.097Z,994.2
2018-07-04T04:45:45.828Z,994.2
2018-07-04T04:46:46.510Z,994.2
2018-07-04T04:47:47.193Z,994.2
2018-07-04T04:48:47.924Z,994.2
2018-07-04T04:49:48.657Z,994.3
2018-07-04T04:50:49.339Z,994.3
2018-07-04T04:51:50.022Z,994.3
2018-07-04T04:52:50.706Z,994.3
2018-07-04T04:53:51.388Z,994.2
2018-07-04T04:54:52.147Z,994.2
2018-07-04T04:55:52.804Z,994.2
2018-07-04T04:56:53.520Z,994.2
2018-07-04T04:57:54.167Z,994.2
2018-07-04T04:58:54.900Z,994.2
2018-07-04T04:59:55.581Z,994.1
2018-07-04T05:00:56.264Z,994.2
2018-07-04T05:01:56.949Z,994.2
2018-07-04T05:02:57.681Z,994.2
2018-07-04T05:03:58.366Z,994.2
2018-07-04T05:04:59.099Z,994.2
2018-07-04T05:05:59.783Z,994.2
2018-07-04T05:07:00.466Z,994.2
2018-07-04T05:08:01.148Z,994.2
2018-07-04T05:09:01.880Z,994.2
2018-07-04T05:10:02.561Z,994.2
2018-07-04T05:11:03.247Z,994.2
2018-07-04T05:12:03.926Z,994.2
2018-07-04T05:13:04.611Z,994.2
2018-07-04T05:14:05.342Z,994.2
2018-07-04T05:15:06.027Z,994.2
2018-07-04T05:16:06.760Z,994.2
2018-07-04T05:17:07.442Z,994.2
2018-07-04T05:18:08.126Z,994.2
2018-07-04T05:19:08.856Z,994.2
2018-07-04T05:20:09.540Z,994.2
2018-07-04T05:21:10.270Z,994.2
2018-07-04T05:22:10.951Z,994.3
2018-07-04T05:23:11.633Z,994.2
2018-07-04T05:24:12.318Z,994.3
2018-07-04T05:25:13.000Z,994.2
2018-07-04T05:26:13.683Z,994.3
2018-07-04T05:27:14.367Z,994.3
2018-07-04T05:28:15.073Z,994.3
2018-07-04T05:29:15.732Z,994.3
2018-07-04T05:30:16.416Z,994.3
2018-07-04T05:31:17.149Z,994.3
2018-07-04T05:32:17.833Z,994.3
2018-07-04T05:33:18.518Z,994.3
2018-07-04T05:34:19.251Z,994.3
2018-07-04T05:35:19.937Z,994.3
2018-07-04T05:36:20.719Z,994.3
2018-07-04T05:37:21.401Z,994.2
2018-07-04T05:38:22.084Z,994.2
2018-07-04T05:39:22.818Z,994.2
2018-07-04T05:40:23.553Z,994.3
2018-07-04T05:41:24.235Z,994.3
2018-07-04T05:42:24.918Z,994.3
2018-07-04T05:43:25.607Z,994.3
2018-07-04T05:44:26.340Z,994.3
2018-07-04T05:45:27.017Z,994.4
2018-07-04T05:46:27.749Z,994.3
2018-07-04T05:47:28.482Z,994.3
2018-07-04T05:48:29.167Z,994.3
2018-07-04T05:49:29.851Z,994.3
2018-07-04T05:50:30.585Z,994.4
2018-07-04T05:51:31.271Z,994.3
2018-07-04T05:52:31.954Z,994.3
2018-07-04T05:53:32.687Z,994.3
2018-07-04T05:54:33.371Z,994.3
2018-07-04T05:55:34.105Z,994.3
2018-07-04T05:56:34.789Z,994.3
2018-07-04T05:57:35.523Z,994.3
2018-07-04T05:58:36.206Z,994.3
2018-07-04T05:59:36.890Z,994.4
2018-07-04T06:00:37.575Z,994.4
2018-07-04T06:01:38.260Z,994.4
2018-07-04T06:02:39.056Z,994.4
2018-07-04T06:03:39.679Z,994.3
2018-07-04T06:04:40.415Z,994.3
2018-07-04T06:05:41.100Z,994.3
2018-07-04T06:06:41.785Z,994.3
2018-07-04T06:07:42.470Z,994.3
2018-07-04T06:08:43.156Z,994.3
2018-07-04T06:09:43.894Z,994.3
2018-07-04T06:10:44.631Z,994.3
2018-07-04T06:11:45.309Z,994.2
2018-07-04T06:12:45.996Z,994.3
2018-07-04T06:13:46.683Z,994.3
2018-07-04T06:14:47.419Z,994.3
2018-07-04T06:15:48.105Z,994.3
2018-07-04T06:16:48.843Z,994.3
2018-07-04T06:17:49.578Z,994.3
2018-07-04T06:18:50.266Z,994.3
2018-07-04T06:19:50.952Z,994.3
2018-07-04T06:20:51.691Z,994.3
2018-07-04T06:21:52.378Z,994.3
2018-07-04T06:22:53.067Z,994.3
2018-07-04T06:23:53.755Z,994.3
2018-07-04T06:24:54.543Z,994.4
2018-07-04T06:25:55.233Z,994.4
2018-07-04T06:26:55.922Z,994.4
2018-07-04T06:27:56.614Z,994.4
2018-07-04T06:28:57.304Z,994.4
2018-07-04T06:29:58.045Z,994.4
2018-07-04T06:30:58.736Z,994.4
2018-07-04T06:31:59.432Z,994.4
2018-07-04T06:33:00.120Z,994.4
2018-07-04T06:34:00.864Z,994.4
2018-07-04T06:35:01.557Z,994.4
2018-07-04T06:36:02.252Z,994.4
2018-07-04T06:37:02.993Z,994.3
2018-07-04T06:38:03.735Z,994.4
2018-07-04T06:39:04.455Z,994.4
2018-07-04T06:40:05.175Z,994.4
2018-07-04T06:41:05.869Z,994.4
2018-07-04T06:42:06.564Z,994.4
2018-07-04T06:43:07.260Z,994.4
2018-07-04T06:44:08.005Z,994.4
2018-07-04T06:45:08.700Z,994.4
2018-07-04T06:46:09.396Z,994.4
2018-07-04T06:47:10.093Z,994.4
2018-07-04T06:48:10.791Z,994.4
2018-07-04T06:49:11.702Z,994.4
2018-07-04T06:50:12.375Z,994.4
2018-07-04T06:51:13.071Z,994.4
2018-07-04T06:52:13.769Z,994.4
2018-07-04T06:53:14.465Z,994.4
2018-07-04T06:54:15.260Z,994.4
2018-07-04T06:55:15.909Z,994.4
2018-07-04T06:56:16.608Z,994.4
2018-07-04T06:57:17.302Z,994.4
2018-07-04T06:58:18.000Z,994.4
2018-07-04T06:59:18.746Z,994.4
2018-07-04T07:00:19.443Z,994.4
2018-07-04T07:01:20.141Z,994.4
2018-07-04T07:02:20.840Z,994.4
2018-07-04T07:03:21.533Z,994.4
2018-07-04T07:04:22.281Z,994.4
2018-07-04T07:05:22.978Z,994.4
2018-07-04T07:06:23.675Z,994.4
2018-07-04T07:07:24.372Z,994.5
2018-07-04T07:08:25.144Z,994.4
2018-07-04T07:09:25.813Z,994.4
2018-07-04T07:10:26.510Z,994.4
2018-07-04T07:11:27.207Z,994.3
2018-07-04T07:12:27.905Z,994.4
2018-07-04T07:13:28.653Z,994.3
2018-07-04T07:14:29.396Z,994.3
2018-07-04T07:15:30.046Z,994.3
2018-07-04T07:16:30.796Z,994.3
2018-07-04T07:17:31.485Z,994.3
2018-07-04T07:18:32.184Z,994.3
2018-07-04T07:19:32.930Z,994.3
2018-07-04T07:20:33.628Z,994.3
2018-07-04T07:21:34.323Z,994.3
2018-07-04T07:22:35.069Z,994.3
2018-07-04T07:23:35.816Z,994.3
2018-07-04T07:24:36.513Z,994.3
2018-07-04T07:25:37.210Z,994.3
2018-07-04T07:26:37.905Z,994.3
2018-07-04T07:27:38.652Z,994.3
2018-07-04T07:28:39.297Z,994.3
2018-07-04T07:29:39.992Z,994.3
2018-07-04T07:30:40.689Z,994.3
2018-07-04T07:31:41.388Z,994.3
2018-07-04T07:32:42.137Z,994.3
2018-07-04T07:33:42.829Z,994.3
2018-07-04T07:34:43.525Z,994.3
2018-07-04T07:35:44.221Z,994.3
2018-07-04T07:36:45.006Z,994.3
2018-07-04T07:37:45.663Z,994.3
2018-07-04T07:38:46.359Z,994.3
2018-07-04T07:39:47.057Z,994.3
2018-07-04T07:40:47.803Z,994.2
2018-07-04T07:41:48.548Z,994.3
2018-07-04T07:42:49.245Z,994.2
2018-07-04T07:43:49.939Z,994.2
2018-07-04T07:44:50.633Z,994.2
2018-07-04T07:45:51.378Z,994.2
2018-07-04T07:46:52.076Z,994.2
2018-07-04T07:47:52.771Z,994.2
2018-07-04T07:48:53.468Z,994.2
2018-07-04T07:49:54.166Z,994.1
2018-07-04T07:50:54.867Z,994.2
2018-07-04T07:51:55.611Z,994.1
2018-07-04T07:52:56.309Z,994.1
2018-07-04T07:53:57.003Z,994.2
2018-07-04T07:54:57.702Z,994.2
2018-07-04T07:55:58.397Z,994.2
2018-07-04T07:56:59.094Z,994.1
2018-07-04T07:57:59.841Z,994.1
2018-07-04T07:59:00.539Z,994.1
2018-07-04T08:00:01.283Z,994.1
2018-07-04T08:01:01.978Z,994.1
2018-07-04T08:02:02.723Z,994.1
2018-07-04T08:03:03.418Z,994.1
2018-07-04T08:04:04.112Z,994.1
2018-07-04T08:05:04.808Z,994.1
2018-07-04T08:06:05.503Z,994.0
2018-07-04T08:07:06.249Z,994.0
2018-07-04T08:08:06.943Z,994.0
2018-07-04T08:09:07.642Z,994.0
2018-07-04T08:10:08.384Z,994.0
2018-07-04T08:11:09.130Z,994.0
2018-07-04T08:12:09.826Z,994.1
2018-07-04T08:13:10.521Z,994.0
2018-07-04T08:14:11.265Z,994.0
2018-07-04T08:15:11.961Z,994.0
2018-07-04T08:16:12.657Z,993.9
2018-07-04T08:17:13.352Z,994.0
2018-07-04T08:18:14.047Z,994.0
2018-07-04T08:19:14.744Z,993.9
2018-07-04T08:20:15.488Z,993.9
2018-07-04T08:21:16.185Z,994.0
2018-07-04T08:22:16.880Z,993.9
2018-07-04T08:23:17.624Z,994.0
2018-07-04T08:24:18.319Z,994.0
2018-07-04T08:25:19.012Z,993.9
2018-07-04T08:26:19.719Z,993.9
2018-07-04T08:27:20.398Z,993.9
2018-07-04T08:28:21.145Z,993.9
2018-07-04T08:29:21.885Z,993.9
2018-07-04T08:30:22.579Z,993.9
2018-07-04T08:31:23.275Z,993.9
2018-07-04T08:32:23.972Z,993.9
2018-07-04T08:33:24.767Z,993.9
2018-07-04T08:34:25.460Z,993.9
2018-07-04T08:35:26.151Z,993.9
2018-07-04T08:36:26.846Z,993.9
2018-07-04T08:37:27.540Z,993.9
2018-07-04T08:38:28.284Z,993.9
2018-07-04T08:39:28.979Z,993.8
2018-07-04T08:40:29.671Z,993.9
2018-07-04T08:41:30.417Z,993.9
2018-07-04T08:42:31.109Z,993.9
2018-07-04T08:43:31.902Z,993.9
2018-07-04T08:44:32.596Z,993.9
2018-07-04T08:45:33.338Z,993.9
2018-07-04T08:46:34.031Z,993.9
2018-07-04T08:47:34.775Z,993.9
2018-07-04T08:48:35.517Z,993.9
2018-07-04T08:49:36.210Z,993.9
2018-07-04T08:50:36.983Z,993.8
2018-07-04T08:51:37.599Z,993.9
2018-07-04T08:52:38.331Z,993.9
2018-07-04T08:53:39.037Z,993.9
2018-07-04T08:54:39.731Z,993.8
2018-07-04T08:55:40.424Z,993.9
2018-07-04T08:56:41.118Z,993.9
2018-07-04T08:57:41.811Z,993.8
2018-07-04T08:58:42.602Z,993.8
2018-07-04T08:59:43.294Z,993.8
2018-07-04T09:00:43.990Z,993.8
2018-07-04T09:01:44.684Z,993.8
2018-07-04T09:02:45.429Z,993.8
2018-07-04T09:03:46.170Z,993.8
2018-07-04T09:04:46.866Z,993.8
2018-07-04T09:05:47.560Z,993.8
2018-07-04T09:06:48.304Z,993.8
2018-07-04T09:07:48.999Z,993.8
2018-07-04T09:08:49.691Z,993.7
2018-07-04T09:09:50.384Z,993.8
2018-07-04T09:10:51.078Z,993.8
2018-07-04T09:11:51.854Z,993.7
2018-07-04T09:12:52.517Z,993.8
2018-07-04T09:13:53.223Z,993.8
2018-07-04T09:14:53.906Z,993.7
2018-07-04T09:15:54.600Z,993.7
2018-07-04T09:16:55.344Z,993.7
2018-07-04T09:17:56.088Z,993.7
2018-07-04T09:18:56.833Z,993.7
2018-07-04T09:19:57.528Z,993.7
2018-07-04T09:20:58.222Z,993.7
2018-07-04T09:21:58.919Z,993.7
2018-07-04T09:22:59.626Z,993.7
2018-07-04T09:24:00.354Z,993.7
2018-07-04T09:25:01.051Z,993.7
2018-07-04T09:26:01.740Z,993.7
2018-07-04T09:27:02.436Z,993.7
2018-07-04T09:28:03.227Z,993.6
2018-07-04T09:29:03.922Z,993.6
2018-07-04T09:30:04.616Z,993.7
2018-07-04T09:31:05.311Z,993.7
2018-07-04T09:32:06.006Z,993.7
2018-07-04T09:33:06.750Z,993.7
2018-07-04T09:34:07.443Z,993.6
2018-07-04T09:35:08.135Z,993.7
2018-07-04T09:36:08.830Z,993.7
2018-07-04T09:37:09.525Z,993.6
2018-07-04T09:38:10.270Z,993.7
2018-07-04T09:39:10.965Z,993.7
2018-07-04T09:40:11.660Z,993.7
2018-07-04T09:41:12.354Z,993.7
2018-07-04T09:42:13.098Z,993.7
2018-07-04T09:43:13.844Z,993.7
2018-07-04T09:44:14.588Z,993.7
2018-07-04T09:45:15.278Z,993.7
2018-07-04T09:46:15.971Z,993.7
2018-07-04T09:47:16.668Z,993.6
2018-07-04T09:48:17.357Z,993.7
2018-07-04T09:49:18.052Z,993.6
2018-07-04T09:50:18.844Z,993.6
2018-07-04T09:51:19.539Z,993.6
2018-07-04T09:52:20.232Z,993.6
2018-07-04T09:53:20.978Z,993.6
2018-07-04T09:54:21.671Z,993.6
2018-07-04T09:55:22.366Z,993.6
2018-07-04T09:56:23.060Z,993.6
2018-07-04T09:57:23.753Z,993.6
2018-07-04T09:58:24.496Z,993.6
2018-07-04T09:59:25.191Z,993.6
2018-07-04T10:00:25.885Z,993.6
2018-07-04T10:01:26.628Z,993.6
2018-07-04T10:02:27.322Z,993.6
2018-07-04T10:03:28.016Z,993.5
2018-07-04T10:04:28.711Z,993.5
2018-07-04T10:05:29.406Z,993.5
2018-07-04T10:06:30.149Z,993.5
2018-07-04T10:07:30.844Z,993.5
2018-07-04T10:08:31.538Z,993.5
2018-07-04T10:09:32.233Z,993.5
2018-07-04T10:10:32.928Z,993.5
2018-07-04T10:11:33.672Z,993.5
2018-07-04T10:12:34.377Z,993.6
2018-07-04T10:13:35.062Z,993.5
2018-07-04T10:14:35.757Z,993.6
2018-07-04T10:15:36.454Z,993.5
2018-07-04T10:16:37.198Z,993.5
2018-07-04T10:17:37.895Z,993.5
2018-07-04T10:18:38.590Z,993.5
2018-07-04T10:19:39.284Z,993.5
2018-07-04T10:20:40.029Z,993.5
2018-07-04T10:21:40.771Z,993.5
2018-07-04T10:22:41.467Z,993.4
2018-07-04T10:23:42.210Z,993.6
2018-07-04T10:24:43.003Z,993.5
2018-07-04T10:25:43.600Z,993.5
2018-07-04T10:26:44.341Z,993.5
2018-07-04T10:27:45.086Z,993.5
2018-07-04T10:28:45.830Z,993.5
2018-07-04T10:29:46.527Z,993.5
2018-07-04T10:30:47.274Z,993.5
2018-07-04T10:31:47.966Z,993.5
2018-07-04T10:32:48.662Z,993.5
2018-07-04T10:33:49.358Z,993.5
2018-07-04T10:34:50.053Z,993.5
2018-07-04T10:35:50.797Z,993.5
2018-07-04T10:36:51.492Z,993.5
2018-07-04T10:37:52.238Z,993.5
2018-07-04T10:38:52.984Z,993.5
2018-07-04T10:39:53.678Z,993.5
2018-07-04T10:40:54.374Z,993.5
2018-07-04T10:41:55.070Z,993.5
2018-07-04T10:42:55.765Z,993.5
2018-07-04T10:43:56.510Z,993.5
2018-07-04T10:44:57.206Z,993.5
2018-07-04T10:45:57.896Z,993.4
2018-07-04T10:46:58.590Z,993.4
2018-07-04T10:47:59.284Z,993.4
2018-07-04T10:49:00.031Z,993.4
2018-07-04T10:50:00.724Z,993.4
2018-07-04T10:51:01.439Z,993.4
2018-07-04T10:52:02.114Z,993.4
2018-07-04T10:53:02.809Z,993.4
2018-07-04T10:54:03.553Z,993.4
2018-07-04T10:55:04.250Z,993.4
2018-07-04T10:56:04.945Z,993.4
2018-07-04T10:57:05.689Z,993.4
2018-07-04T10:58:06.385Z,993.4
2018-07-04T10:59:07.129Z,993.4
2018-07-04T11:00:07.876Z,993.3
2018-07-04T11:01:08.567Z,993.4
2018-07-04T11:02:09.260Z,993.3
2018-07-04T11:03:10.005Z,993.3
2018-07-04T11:04:10.746Z,993.4
2018-07-04T11:05:11.441Z,993.3
2018-07-04T11:06:12.133Z,993.3
2018-07-04T11:07:12.879Z,993.3
2018-07-04T11:08:13.606Z,993.3
2018-07-04T11:09:14.266Z,993.3
2018-07-04T11:10:15.061Z,993.4
2018-07-04T11:11:15.765Z,993.4
2018-07-04T11:12:16.497Z,993.4
2018-07-04T11:13:17.241Z,993.4
2018-07-04T11:14:17.935Z,993.3
2018-07-04T11:15:18.676Z,993.3
2018-07-04T11:16:19.369Z,993.3
2018-07-04T11:17:20.061Z,993.3
2018-07-04T11:18:20.755Z,993.3
2018-07-04T11:19:21.451Z,993.3
2018-07-04T11:20:22.146Z,993.3
2018-07-04T11:21:22.842Z,993.3
2018-07-04T11:22:23.590Z,993.2
2018-07-04T11:23:24.283Z,993.2
2018-07-04T11:24:24.992Z,993.2
2018-07-04T11:25:25.673Z,993.1
2018-07-04T11:26:26.417Z,993.1
2018-07-04T11:27:27.112Z,993.2
2018-07-04T11:28:27.840Z,993.1
2018-07-04T11:29:28.549Z,993.1
2018-07-04T11:30:29.244Z,993.1
2018-07-04T11:31:29.943Z,993.1
2018-07-04T11:32:30.636Z,993.1
2018-07-04T11:33:31.383Z,993.1
2018-07-04T11:34:32.077Z,993.0
2018-07-04T11:35:32.773Z,993.1
2018-07-04T11:36:33.517Z,993.0
2018-07-04T11:37:34.215Z,993.0
2018-07-04T11:38:34.955Z,993.0
2018-07-04T11:39:35.648Z,993.1
2018-07-04T11:40:36.341Z,993.1
2018-07-04T11:41:37.087Z,993.0
2018-07-04T11:42:37.779Z,993.0
2018-07-04T11:43:38.474Z,992.9
2018-07-04T11:44:39.168Z,992.9
2018-07-04T11:45:39.863Z,992.9
2018-07-04T11:46:40.607Z,992.9
2018-07-04T11:47:41.302Z,993.0
2018-07-04T11:48:41.996Z,993.0
2018-07-04T11:49:42.690Z,993.0
2018-07-04T11:50:43.382Z,992.9
2018-07-04T11:51:44.075Z,992.9
2018-07-04T11:52:44.820Z,993.0
2018-07-04T11:53:45.515Z,993.0
2018-07-04T11:54:46.255Z,993.0
2018-07-04T11:55:46.948Z,993.0
2018-07-04T11:56:47.650Z,993.0
2018-07-04T11:57:48.387Z,992.9
2018-07-04T11:58:49.081Z,992.9
2018-07-04T11:59:49.772Z,992.9
2018-07-04T12:00:50.466Z,992.9
2018-07-04T12:01:51.187Z,992.8
2018-07-04T12:02:51.946Z,992.9
2018-07-04T12:03:52.640Z,992.9
2018-07-04T12:04:53.380Z,992.8
2018-07-04T12:05:54.075Z,992.9
2018-07-04T12:06:54.767Z,992.9
2018-07-04T12:07:55.509Z,992.9
2018-07-04T12:08:56.202Z,992.9
2018-07-04T12:09:56.944Z,993.0
2018-07-04T12:10:57.651Z,993.0
2018-07-04T12:11:58.329Z,993.0
2018-07-04T12:12:59.071Z,992.9
2018-07-04T12:13:59.764Z,992.9
2018-07-04T12:15:00.507Z,993.0
2018-07-04T12:16:01.200Z,993.0
2018-07-04T12:17:01.952Z,993.0
2018-07-04T12:18:02.646Z,992.9
2018-07-04T12:19:03.338Z,992.9
2018-07-04T12:20:04.084Z,992.9
2018-07-04T12:21:04.773Z,993.0
2018-07-04T12:22:05.465Z,992.8
2018-07-04T12:23:06.158Z,992.9
2018-07-04T12:24:06.852Z,992.9
2018-07-04T12:25:07.595Z,992.9
2018-07-04T12:26:08.288Z,992.9
2018-07-04T12:27:09.028Z,993.0
2018-07-04T12:28:09.721Z,992.9
2018-07-04T12:29:10.414Z,992.8
2018-07-04T12:30:11.108Z,992.9
2018-07-04T12:31:11.806Z,992.9
2018-07-04T12:32:12.544Z,992.9
2018-07-04T12:33:13.283Z,992.9
2018-07-04T12:34:13.976Z,992.9
2018-07-04T12:35:14.671Z,992.9
2018-07-04T12:36:15.360Z,993.0
2018-07-04T12:37:16.053Z,992.9
2018-07-04T12:38:16.800Z,992.9
2018-07-04T12:39:17.490Z,992.9
2018-07-04T12:40:18.177Z,992.9
2018-07-04T12:41:18.871Z,992.8
2018-07-04T12:42:19.562Z,992.8
2018-07-04T12:43:20.294Z,992.8
2018-07-04T12:44:20.950Z,992.8
2018-07-04T12:45:21.644Z,992.8
2018-07-04T12:46:22.342Z,992.8
2018-07-04T12:47:23.165Z,992.8
2018-07-04T12:48:23.773Z,992.8
2018-07-04T12:49:24.461Z,992.8
2018-07-04T12:50:25.155Z,992.8
2018-07-04T12:51:25.864Z,992.8
2018-07-04T12:52:26.540Z,992.8
2018-07-04T12:53:27.235Z,992.8
2018-07-04T12:54:27.983Z,992.8
2018-07-04T12:55:28.621Z,992.8
2018-07-04T12:56:29.367Z,992.8
2018-07-04T12:57:30.059Z,992.7
2018-07-04T12:58:30.746Z,992.7
2018-07-04T12:59:31.543Z,992.7
2018-07-04T13:00:32.181Z,992.7
2018-07-04T13:01:32.874Z,992.7